createdAt,value
2022-07-26T00:01:35.832Z,97885.13
2022-07-26T00:04:21.629Z,97955.66
2022-07-26T00:07:08.028Z,97940.84
2022-07-26T00:09:53.462Z,97772.13
2022-07-26T00:12:39.241Z,97803.94
2022-07-26T00:15:25.303Z,97919.41
2022-07-26T00:18:12.044Z,97932.16
2022-07-26T00:20:58.085Z,97926.53
2022-07-26T00:23:43.687Z,97804.38
2022-07-26T00:26:29.015Z,97755.25
2022-07-26T00:29:14.493Z,97932.97
2022-07-26T00:31:59.875Z,97797.22
2022-07-26T00:34:45.632Z,97720.25
2022-07-26T00:37:31.198Z,97907.72
2022-07-26T00:40:17.291Z,97775.13
2022-07-26T00:43:03.274Z,97918.41
2022-07-26T00:45:50.646Z,97878.06
2022-07-26T00:48:36.554Z,97817.31
2022-07-26T00:51:22.614Z,97777.06
2022-07-26T00:54:08.305Z,97893.53
2022-07-26T00:56:55.310Z,97896.84
2022-07-26T00:59:42.181Z,97906.63
2022-07-26T01:02:27.759Z,97894.94
2022-07-26T01:05:13.165Z,97899.94
2022-07-26T01:07:59.002Z,97855.28
2022-07-26T01:10:44.363Z,97731.03
2022-07-26T01:13:34.765Z,97717.28
2022-07-26T01:16:20.854Z,97876.63
2022-07-26T01:19:06.187Z,97893.69
2022-07-26T01:21:52.051Z,97734.25
2022-07-26T01:24:38.070Z,97732.59
2022-07-26T01:27:23.494Z,97848.19
2022-07-26T01:30:11.501Z,97828.66
2022-07-26T01:32:56.671Z,97838.59
2022-07-26T01:35:42.135Z,97865.66
2022-07-26T01:38:27.592Z,97864.28
2022-07-26T01:41:12.880Z,97707.84
2022-07-26T01:43:58.318Z,97870.53
2022-07-26T01:46:43.663Z,97866.44
2022-07-26T01:49:29.067Z,97764.94
2022-07-26T01:52:14.577Z,97877.44
2022-07-26T01:55:00.041Z,97870.38
2022-07-26T01:57:49.034Z,97874.53
2022-07-26T02:00:34.883Z,97863.88
2022-07-26T02:03:20.614Z,97855.94
2022-07-26T02:06:07.213Z,97837.47
2022-07-26T02:08:52.981Z,97871.66
2022-07-26T02:11:39.126Z,97838.91
2022-07-26T02:14:25.528Z,97862.97
2022-07-26T02:17:13.717Z,97856.44
2022-07-26T02:19:58.931Z,97794.94
2022-07-26T02:22:45.084Z,97854.19
2022-07-26T02:25:30.998Z,97766.69
2022-07-26T02:28:17.360Z,97676.75
2022-07-26T02:31:02.859Z,97680.19
2022-07-26T02:33:52.123Z,97709.44
2022-07-26T02:36:38.081Z,97707.06
2022-07-26T02:39:27.778Z,97698.38
2022-07-26T02:42:13.057Z,97715.75
2022-07-26T02:44:58.723Z,97844.91
2022-07-26T02:47:52.498Z,97688.88
2022-07-26T02:50:38.968Z,97852.34
2022-07-26T02:53:25.345Z,97868.75
2022-07-26T02:56:11.055Z,97880.47
2022-07-26T02:58:56.759Z,97706.78
2022-07-26T03:01:42.429Z,97858.09
2022-07-26T03:04:27.869Z,97835.97
2022-07-26T03:07:13.308Z,97756.53
2022-07-26T03:09:59.367Z,97727.75
2022-07-26T03:12:45.125Z,97803.91
2022-07-26T03:15:30.945Z,97718.53
2022-07-26T03:18:16.960Z,97816.84
2022-07-26T03:21:03.175Z,97732.13
2022-07-26T03:23:48.816Z,97871.78
2022-07-26T03:26:34.239Z,97731.91
2022-07-26T03:29:19.659Z,97843.19
2022-07-26T03:32:05.453Z,97683.41
2022-07-26T03:34:51.389Z,97780.50
2022-07-26T03:37:45.016Z,97840.06
2022-07-26T03:40:31.294Z,97840.28
2022-07-26T03:43:21.197Z,97805.22
2022-07-26T03:46:08.896Z,97701.28
2022-07-26T03:48:54.599Z,97733.56
2022-07-26T03:51:40.065Z,97824.19
2022-07-26T03:54:25.494Z,97659.09
2022-07-26T03:57:11.392Z,97821.78
2022-07-26T03:59:57.163Z,97684.50
2022-07-26T04:02:43.129Z,97807.84
2022-07-26T04:05:29.335Z,97816.53
2022-07-26T04:08:17.644Z,97718.00
2022-07-26T04:11:03.203Z,97643.63
2022-07-26T04:13:48.686Z,97741.88
2022-07-26T04:16:36.202Z,97772.44
2022-07-26T04:19:24.964Z,97805.91
2022-07-26T04:22:10.674Z,97661.28
2022-07-26T04:24:56.682Z,97796.38
2022-07-26T04:27:42.815Z,97771.88
2022-07-26T04:30:29.053Z,97807.56
2022-07-26T04:33:14.644Z,97644.13
2022-07-26T04:36:01.197Z,97752.75
2022-07-26T04:38:47.954Z,97780.81
2022-07-26T04:41:33.682Z,97779.75
2022-07-26T04:44:19.808Z,97771.06
2022-07-26T04:47:06.336Z,97609.19
2022-07-26T04:49:52.005Z,97619.53
2022-07-26T04:52:37.860Z,97793.81
2022-07-26T04:55:24.080Z,97794.50
2022-07-26T04:58:10.531Z,97664.41
2022-07-26T05:01:09.531Z,97786.06
2022-07-26T05:03:56.193Z,97718.91
2022-07-26T05:06:42.401Z,97778.44
2022-07-26T05:09:29.914Z,97754.09
2022-07-26T05:12:16.289Z,97765.31
2022-07-26T05:15:01.835Z,97775.91
2022-07-26T05:17:50.289Z,97735.25
2022-07-26T05:20:37.576Z,97780.63
2022-07-26T05:23:23.767Z,97786.31
2022-07-26T05:26:11.553Z,97771.31
2022-07-26T05:28:57.730Z,97773.25
2022-07-26T05:31:43.865Z,97780.13
2022-07-26T05:34:30.180Z,97730.88
2022-07-26T05:37:16.223Z,97645.25
2022-07-26T05:40:02.604Z,97787.63
2022-07-26T05:42:49.039Z,97670.41
2022-07-26T05:45:35.048Z,97746.81
2022-07-26T05:48:21.434Z,97751.09
2022-07-26T05:51:09.026Z,97765.78
2022-07-26T05:53:55.343Z,97742.91
2022-07-26T05:56:41.108Z,97725.69
2022-07-26T05:59:27.545Z,97699.97
2022-07-26T06:02:14.209Z,97750.97
2022-07-26T06:05:00.574Z,97770.00
2022-07-26T06:07:46.715Z,97763.13
2022-07-26T06:10:32.454Z,97575.03
2022-07-26T06:13:18.723Z,97731.59
2022-07-26T06:16:05.153Z,97769.88
2022-07-26T06:18:52.701Z,97748.88
2022-07-26T06:21:38.361Z,97584.41
2022-07-26T06:24:24.339Z,97748.38
2022-07-26T06:27:11.365Z,97720.53
2022-07-26T06:29:57.857Z,97737.38
2022-07-26T06:32:46.541Z,97720.59
2022-07-26T06:35:34.324Z,97725.72
2022-07-26T06:38:19.946Z,97630.09
2022-07-26T06:41:06.700Z,97687.50
2022-07-26T06:43:52.675Z,97681.84
2022-07-26T06:46:38.840Z,97656.28
2022-07-26T06:49:24.623Z,97712.59
2022-07-26T06:52:11.033Z,97684.97
2022-07-26T06:54:57.286Z,97710.75
2022-07-26T06:57:50.163Z,97647.91
2022-07-26T07:00:37.178Z,97669.53
2022-07-26T07:03:26.715Z,97703.94
2022-07-26T07:06:14.141Z,97660.44
2022-07-26T07:09:00.529Z,97705.56
2022-07-26T07:11:51.870Z,97711.31
2022-07-26T07:14:44.632Z,97574.22
2022-07-26T07:17:34.609Z,97614.38
2022-07-26T07:20:21.099Z,97681.59
2022-07-26T07:23:08.482Z,97711.69
2022-07-26T07:25:54.679Z,97701.78
2022-07-26T07:28:42.755Z,97714.56
2022-07-26T07:31:47.851Z,97714.63
2022-07-26T07:34:34.928Z,97676.81
2022-07-26T07:37:22.124Z,97699.63
2022-07-26T07:40:10.440Z,97706.19
2022-07-26T07:42:56.796Z,97676.09
2022-07-26T07:45:43.237Z,97733.94
2022-07-26T07:48:34.300Z,97594.97
2022-07-26T07:51:21.183Z,97716.16
2022-07-26T07:54:07.549Z,97706.31
2022-07-26T07:56:56.546Z,97704.94
2022-07-26T07:59:42.925Z,97669.31
2022-07-26T08:02:29.188Z,97692.84
2022-07-26T08:05:15.765Z,97692.22
2022-07-26T08:08:03.790Z,97702.91
2022-07-26T08:10:52.217Z,97550.91
2022-07-26T08:13:39.109Z,97643.78
2022-07-26T08:16:25.927Z,97660.91
2022-07-26T08:19:12.317Z,97689.50
2022-07-26T08:21:58.368Z,97702.31
2022-07-26T08:24:47.325Z,97699.47
2022-07-26T08:27:40.406Z,97699.50
2022-07-26T08:30:27.025Z,97656.03
2022-07-26T08:33:13.057Z,97699.50
2022-07-26T08:35:58.802Z,97566.16
2022-07-26T08:38:47.649Z,97688.13
2022-07-26T08:41:34.021Z,97608.28
2022-07-26T08:44:19.856Z,97685.31
2022-07-26T08:47:05.983Z,97683.91
2022-07-26T08:49:55.023Z,97682.50
2022-07-26T08:52:44.727Z,97663.97
2022-07-26T08:55:44.692Z,97705.31
2022-07-26T08:58:36.840Z,97644.06
2022-07-26T09:01:22.627Z,97664.06
2022-07-26T09:04:31.221Z,97541.50
2022-07-26T09:07:19.393Z,97637.00
2022-07-26T09:10:11.671Z,97608.47
2022-07-26T09:12:58.311Z,97653.38
2022-07-26T09:15:44.919Z,97676.88
2022-07-26T09:18:31.659Z,97656.22
2022-07-26T09:21:33.152Z,97664.06
2022-07-26T09:24:36.300Z,97663.34
2022-07-26T09:27:26.466Z,97665.47
2022-07-26T09:30:13.822Z,97661.22
2022-07-26T09:33:05.670Z,97642.69
2022-07-26T09:36:21.637Z,97652.69
2022-07-26T09:39:07.267Z,97655.53
2022-07-26T09:42:17.386Z,97647.66
2022-07-26T09:45:00.278Z,97658.34
2022-07-26T09:47:46.207Z,97531.63
2022-07-26T09:50:33.716Z,97656.91
2022-07-26T09:53:22.061Z,97655.47
2022-07-26T09:56:08.516Z,97635.53
2022-07-26T09:58:54.774Z,97535.91
2022-07-26T10:01:40.359Z,97658.31
2022-07-26T10:04:26.715Z,97659.72
2022-07-26T10:07:12.261Z,97646.91
2022-07-26T10:10:04.355Z,97558.69
2022-07-26T10:12:52.185Z,97534.50
2022-07-26T10:15:50.705Z,97646.88
2022-07-26T10:18:35.879Z,97662.53
2022-07-26T10:21:32.620Z,97655.41
2022-07-26T10:24:28.802Z,97658.25
2022-07-26T10:27:41.533Z,97657.50
2022-07-26T10:30:35.172Z,97648.28
2022-07-26T10:33:25.977Z,97453.38
2022-07-26T10:36:39.771Z,97643.91
2022-07-26T10:39:27.744Z,97641.03
2022-07-26T10:42:15.162Z,97633.94
2022-07-26T10:45:18.693Z,97642.47
2022-07-26T10:48:24.671Z,97632.47
2022-07-26T10:51:25.605Z,97632.53
2022-07-26T10:54:14.105Z,97525.88
2022-07-26T10:57:02.589Z,97640.31
2022-07-26T10:59:56.741Z,97633.94
2022-07-26T11:02:44.592Z,97627.47
2022-07-26T11:05:33.821Z,97582.00
2022-07-26T11:08:19.363Z,97628.19
2022-07-26T11:11:05.615Z,97562.78
2022-07-26T11:13:51.820Z,97636.78
2022-07-26T11:16:39.093Z,97606.88
2022-07-26T11:19:26.199Z,97622.50
2022-07-26T11:22:12.647Z,97616.78
2022-07-26T11:24:58.677Z,97621.75
2022-07-26T11:28:00.919Z,97612.47
2022-07-26T11:31:00.258Z,97613.91
2022-07-26T11:33:51.136Z,97603.19
2022-07-26T11:36:43.594Z,97619.53
2022-07-26T11:39:32.930Z,97596.72
2022-07-26T11:42:22.188Z,97441.81
2022-07-26T11:45:11.366Z,97231.63
2022-07-26T11:48:01.043Z,97527.75
2022-07-26T11:50:48.698Z,97592.34
2022-07-26T11:53:38.605Z,97487.19
2022-07-26T11:56:24.901Z,97582.34
2022-07-26T11:59:14.006Z,97410.50
2022-07-26T12:02:01.570Z,97265.69
2022-07-26T12:04:47.510Z,97575.22
2022-07-26T12:07:33.772Z,97453.00
2022-07-26T12:10:20.946Z,97580.81
2022-07-26T12:13:13.293Z,97467.16
2022-07-26T12:16:00.102Z,97498.34
2022-07-26T12:18:51.408Z,97557.22
2022-07-26T12:21:43.244Z,97549.31
2022-07-26T12:24:41.592Z,97565.03
2022-07-26T12:27:32.598Z,97530.81
2022-07-26T12:30:18.787Z,97527.91
2022-07-26T12:33:05.108Z,97533.59
2022-07-26T12:35:51.756Z,97527.16
2022-07-26T12:38:41.115Z,97529.22
2022-07-26T12:41:39.366Z,97524.94
2022-07-26T12:44:25.256Z,97488.00
2022-07-26T12:47:11.354Z,97521.38
2022-07-26T12:49:58.477Z,97404.34
2022-07-26T12:52:44.965Z,97527.06
2022-07-26T12:55:32.477Z,97502.19
2022-07-26T12:58:18.676Z,97520.59
2022-07-26T13:01:04.955Z,97509.19
2022-07-26T13:03:51.910Z,97504.88
2022-07-26T13:06:38.159Z,97419.81
2022-07-26T13:09:24.050Z,97517.00
2022-07-26T13:12:11.507Z,97465.84
2022-07-26T13:14:57.909Z,97501.25
2022-07-26T13:17:43.989Z,97506.94
2022-07-26T13:20:30.687Z,97489.22
2022-07-26T13:23:21.436Z,97494.84
2022-07-26T13:26:10.188Z,97486.31
2022-07-26T13:28:57.625Z,97479.19
2022-07-26T13:31:43.133Z,97428.13
2022-07-26T13:34:34.756Z,97494.72
2022-07-26T13:37:20.704Z,97494.72
2022-07-26T13:40:06.848Z,97392.53
2022-07-26T13:42:52.691Z,97398.25
2022-07-26T13:45:38.530Z,97490.41
2022-07-26T13:48:24.359Z,97498.94
2022-07-26T13:51:09.742Z,97488.22
2022-07-26T13:53:55.675Z,97482.50
2022-07-26T13:56:41.830Z,97483.34
2022-07-26T13:59:27.808Z,97506.78
2022-07-26T14:02:14.019Z,97495.31
2022-07-26T14:04:59.978Z,97478.88
2022-07-26T14:07:45.981Z,97446.25
2022-07-26T14:10:31.811Z,97345.59
2022-07-26T14:13:17.882Z,97461.78
2022-07-26T14:16:04.516Z,97456.00
2022-07-26T14:18:55.162Z,97472.34
2022-07-26T14:21:48.953Z,97468.78
2022-07-26T14:24:45.180Z,97428.28
2022-07-26T14:27:38.063Z,97463.06
2022-07-26T14:30:29.622Z,97457.34
2022-07-26T14:33:22.480Z,97458.09
2022-07-26T14:36:14.289Z,97453.78
2022-07-26T14:39:01.728Z,97465.88
2022-07-26T14:42:12.506Z,97454.44
2022-07-26T14:45:03.729Z,97442.44
2022-07-26T14:48:01.118Z,97455.88
2022-07-26T14:51:38.110Z,97459.50
2022-07-26T14:54:26.679Z,97457.38
2022-07-26T14:57:17.325Z,97444.59
2022-07-26T15:03:31.907Z,97458.75
2022-07-26T15:06:26.859Z,97451.59
2022-07-26T15:09:16.106Z,97451.63
2022-07-26T15:12:32.296Z,97448.81
2022-07-26T15:15:21.106Z,97445.91
2022-07-26T15:18:10.199Z,97453.03
2022-07-26T15:21:12.569Z,97437.44
2022-07-26T15:24:04.030Z,97437.44
2022-07-26T15:26:53.847Z,97432.50
2022-07-26T15:29:47.288Z,97428.22
2022-07-26T15:32:36.191Z,97438.84
2022-07-26T15:35:24.278Z,97434.56
2022-07-26T15:39:23.491Z,97441.72
2022-07-26T15:42:18.207Z,97434.56
2022-07-26T15:45:32.776Z,97439.59
2022-07-26T15:49:22.240Z,97438.91
2022-07-26T15:51:48.375Z,97426.78
2022-07-26T15:54:44.451Z,97432.56
2022-07-26T15:57:39.933Z,97429.03
2022-07-26T16:00:34.561Z,97436.19
2022-07-26T16:03:25.794Z,97431.97
2022-07-26T16:06:16.268Z,97429.19
2022-07-26T16:09:20.276Z,97424.88
2022-07-26T16:12:09.874Z,97433.53
2022-07-26T16:14:57.354Z,97435.75
2022-07-26T16:17:49.311Z,97427.94
2022-07-26T16:20:37.898Z,97444.44
2022-07-26T16:23:25.058Z,97446.69
2022-07-26T16:26:12.195Z,97448.19
2022-07-26T16:28:59.730Z,97302.88
2022-07-26T16:31:47.315Z,97449.75
2022-07-26T16:34:37.602Z,97442.66
2022-07-26T16:37:24.885Z,97320.06
2022-07-26T16:40:12.253Z,97455.69
2022-07-26T16:43:00.165Z,97450.03
2022-07-26T16:45:57.218Z,97459.34
2022-07-26T16:48:46.535Z,97455.81
2022-07-26T16:51:33.433Z,97463.00
2022-07-26T16:54:21.246Z,97463.03
2022-07-26T16:57:09.112Z,97420.44
2022-07-26T16:59:56.356Z,97461.75
2022-07-26T17:02:48.811Z,97475.31
2022-07-26T17:05:45.486Z,97469.63
2022-07-26T17:08:35.031Z,97449.09
2022-07-26T17:12:38.462Z,97482.53
2022-07-26T17:15:24.245Z,97486.09
2022-07-26T17:18:25.221Z,97494.66
2022-07-26T17:21:22.562Z,97505.31
2022-07-26T17:24:16.908Z,97514.56
2022-07-26T17:27:04.628Z,97516.00
2022-07-26T17:29:54.027Z,97493.22
2022-07-26T17:32:42.009Z,97396.38
2022-07-26T17:35:42.848Z,97549.41
2022-07-26T17:38:35.413Z,97548.69
2022-07-26T17:41:32.649Z,97554.38
2022-07-26T17:44:22.651Z,97552.91
2022-07-26T17:47:18.122Z,97542.91
2022-07-26T17:53:21.757Z,97547.13
2022-07-26T17:56:17.875Z,97539.25
2022-07-26T17:59:04.298Z,97504.16
2022-07-26T18:01:53.985Z,97559.00
2022-07-26T18:04:40.938Z,97424.19
2022-07-26T18:07:27.235Z,97597.97
2022-07-26T18:10:14.460Z,97534.44
2022-07-26T18:13:00.334Z,97609.22
2022-07-26T18:15:46.356Z,97594.94
2022-07-26T18:18:32.711Z,97607.66
2022-07-26T18:21:19.604Z,97588.31
2022-07-26T18:24:16.957Z,97612.56
2022-07-26T18:27:04.608Z,97572.50
2022-07-26T18:29:50.424Z,97633.19
2022-07-26T18:32:36.689Z,97650.19
2022-07-26T18:35:24.385Z,97629.56
2022-07-26T18:38:13.858Z,97635.84
2022-07-26T18:41:00.775Z,97642.84
2022-07-26T18:43:49.152Z,97675.47
2022-07-26T18:46:34.767Z,97625.56
2022-07-26T18:49:20.785Z,97670.34
2022-07-26T18:52:08.738Z,97667.50
2022-07-26T18:54:59.126Z,97663.91
2022-07-26T18:57:45.824Z,97613.72
2022-07-26T19:00:31.655Z,97666.66
2022-07-26T19:03:20.009Z,97635.22
2022-07-26T19:09:41.118Z,97685.91
2022-07-26T19:12:54.757Z,97712.13
2022-07-26T19:15:41.049Z,97706.41
2022-07-26T19:18:27.628Z,97681.72
2022-07-26T19:21:13.052Z,97709.66
2022-07-26T19:23:58.894Z,97590.28
2022-07-26T19:26:44.739Z,97701.19
2022-07-26T19:29:30.189Z,97711.56
2022-07-26T19:32:16.672Z,97596.09
2022-07-26T19:35:02.825Z,97686.41
2022-07-26T19:37:49.021Z,97707.25
2022-07-26T19:40:35.430Z,97707.69
2022-07-26T19:43:23.882Z,97665.00
2022-07-26T19:46:23.775Z,97718.47
2022-07-26T19:49:17.630Z,97708.41
2022-07-26T19:52:07.195Z,97703.25
2022-07-26T19:54:58.907Z,97713.13
2022-07-26T19:57:44.721Z,97697.25
2022-07-26T20:00:30.529Z,97702.72
2022-07-26T20:03:16.228Z,97655.25
2022-07-26T20:06:02.054Z,97702.16
2022-07-26T20:08:49.902Z,97667.63
2022-07-26T20:11:36.110Z,97718.81
2022-07-26T20:14:35.186Z,97715.94
2022-07-26T20:17:30.962Z,97666.41
2022-07-26T20:20:18.183Z,97730.72
2022-07-26T20:23:06.236Z,97636.84
2022-07-26T20:25:51.980Z,97735.78
2022-07-26T20:28:38.868Z,97682.75
2022-07-26T20:31:25.219Z,97578.72
2022-07-26T20:34:11.841Z,97570.72
2022-07-26T20:37:00.314Z,97713.44
2022-07-26T20:39:47.364Z,97613.47
2022-07-26T20:42:34.142Z,97563.25
2022-07-26T20:45:19.890Z,97550.63
2022-07-26T20:48:06.624Z,97722.34
2022-07-26T20:50:52.315Z,97572.88
2022-07-26T20:53:37.580Z,97709.66
2022-07-26T20:56:23.318Z,97665.88
2022-07-26T20:59:10.191Z,97706.66
2022-07-26T21:01:55.989Z,97555.00
2022-07-26T21:04:41.922Z,97712.84
2022-07-26T21:07:55.609Z,97606.53
2022-07-26T21:10:33.062Z,97702.81
2022-07-26T21:13:18.995Z,97716.91
2022-07-26T21:16:06.317Z,97724.03
2022-07-26T21:18:55.986Z,97749.56
2022-07-26T21:21:48.972Z,97756.75
2022-07-26T21:25:06.497Z,97750.50
2022-07-26T21:27:56.387Z,97673.56
2022-07-26T21:30:42.204Z,97595.75
2022-07-26T21:33:28.091Z,97678.88
2022-07-26T21:36:14.682Z,97728.13
2022-07-26T21:39:00.694Z,97734.25
2022-07-26T21:41:47.002Z,97771.88
2022-07-26T21:44:32.527Z,97758.56
2022-07-26T21:47:18.741Z,97751.88
2022-07-26T21:50:11.611Z,97778.72
2022-07-26T21:53:08.913Z,97773.75
2022-07-26T21:56:14.504Z,97754.69
2022-07-26T21:59:02.183Z,97713.28
2022-07-26T22:01:55.526Z,97722.03
2022-07-26T22:04:57.365Z,97762.91
2022-07-26T22:07:49.306Z,97791.97
2022-07-26T22:10:42.283Z,97781.63
2022-07-26T22:13:48.104Z,97729.25
2022-07-26T22:16:49.248Z,97775.78
2022-07-26T22:19:35.592Z,97667.00
2022-07-26T22:22:21.497Z,97777.75
2022-07-26T22:25:07.902Z,97798.81
2022-07-26T22:27:54.396Z,97802.63
2022-07-26T22:30:40.759Z,97799.94
2022-07-26T22:33:33.076Z,97766.91
2022-07-26T22:36:29.224Z,97771.50
2022-07-26T22:39:15.370Z,97708.41
2022-07-26T22:42:16.251Z,97650.25
2022-07-26T22:45:02.165Z,97780.44
2022-07-26T22:47:56.749Z,97610.38
2022-07-26T22:50:42.680Z,97626.06
2022-07-26T22:53:28.548Z,97766.66
2022-07-26T22:56:14.366Z,97568.22
2022-07-26T22:59:05.106Z,97614.88
2022-07-26T23:01:51.565Z,97766.28
2022-07-26T23:04:37.217Z,97606.59
2022-07-26T23:07:22.538Z,97597.06
2022-07-26T23:10:10.981Z,97613.28
2022-07-26T23:12:58.346Z,97720.78
2022-07-26T23:15:47.262Z,97747.94
2022-07-26T23:18:35.805Z,97627.13
2022-07-26T23:21:21.256Z,97722.81
2022-07-26T23:24:07.035Z,97744.22
2022-07-26T23:26:52.573Z,97728.69
2022-07-26T23:29:38.006Z,97613.97
2022-07-26T23:32:23.451Z,97781.78
2022-07-26T23:35:09.074Z,97777.53
2022-07-26T23:37:54.720Z,97696.25
2022-07-26T23:40:40.436Z,97615.56
2022-07-26T23:43:27.568Z,97760.16
2022-07-26T23:46:13.472Z,97621.41
2022-07-26T23:48:58.880Z,97731.00
2022-07-26T23:51:44.185Z,97734.56
2022-07-26T23:54:29.671Z,97761.94
2022-07-26T23:57:15.519Z,97621.56
